»·PEaware :: UAL1399 KGJT-KASE

UAL1399 :: KGJT-KASE

FLIGHT INFORMATION

Flight Status: Arrived
Operator:
United Airlines
More flights by this operator :: More flights under this callsign
Pilot: David C. (16084)
Aircraft: SAAB 340
(SF34)
More flights by this aircraft type
Origin: KGJT Walker
United States
Destination: KASE Aspen-Pitkin Co/Sardy
United States
More flights between these airports :: More routes between these airports
Route: JNC7 PACES V134 DBL
File this flight plan on PilotEdge
Remarks:
Altitude:
(Current/Filed)
15,000ft
Speed:
(Current/Filed)
283kts
Departed: 31-Jul-18 10:13 AM
Arrived: 31-Jul-18 10:44 AM
Distance/Time
Traveled:
78nm/0:30
Distance/Time
To Go:
Arrived

Flight Plot

Page will automatically refresh every two minutes.

Flight plan parsing failed; only flown route is shown


Map Options




Map Legend


Flown Route
Filed Route
Departure Airport
Arrival Airport
Navaid (VOR, NDB)
Fix

Horizontal Profiles

Position Reports

Time Latitude Longitude Heading Altitude Ground
Speed
31-Jul-18 09:49 39.123261 -108.528975 290 4862ft 0kts
31-Jul-18 09:50 39.123261 -108.528975 290 4862ft 0kts
31-Jul-18 09:51 39.123261 -108.528975 290 4862ft 0kts
31-Jul-18 09:52 39.123261 -108.528975 290 4862ft 0kts
31-Jul-18 09:53 39.123261 -108.528975 290 4862ft 0kts
31-Jul-18 09:54 39.123261 -108.528975 290 4862ft 0kts
31-Jul-18 09:55 39.123261 -108.528975 290 4862ft 0kts
31-Jul-18 09:56 39.123261 -108.528975 290 4862ft 0kts
31-Jul-18 09:57 39.123261 -108.528975 290 4862ft 0kts
31-Jul-18 09:58 39.123261 -108.528975 290 4862ft 0kts
31-Jul-18 09:59 39.123261 -108.528975 290 4862ft 0kts
31-Jul-18 10:00 39.123261 -108.528975 290 4862ft 0kts
31-Jul-18 10:01 39.123261 -108.528975 290 4862ft 0kts
31-Jul-18 10:02 39.123261 -108.528975 290 4862ft 0kts
31-Jul-18 10:03 39.123261 -108.528975 290 4862ft 0kts
31-Jul-18 10:04 39.123261 -108.528975 290 4862ft 0kts
31-Jul-18 10:05 39.123261 -108.528975 290 4862ft 0kts
31-Jul-18 10:06 39.123987 -108.528544 72 4862ft 13kts
31-Jul-18 10:07 39.127496 -108.533099 304 4862ft 23kts
31-Jul-18 10:08 39.130923 -108.539416 303 4862ft 21kts
31-Jul-18 10:09 39.133959 -108.544724 334 4862ft 0kts
31-Jul-18 10:10 39.133959 -108.544724 334 4862ft 0kts
31-Jul-18 10:11 39.133959 -108.544724 334 4862ft 0kts
31-Jul-18 10:12 39.133959 -108.544724 334 4862ft 0kts
31-Jul-18 10:13 39.134180 -108.544795 0 4862ft 3kts
31-Jul-18 10:14 39.134178 -108.542915 125 4862ft 45kts
31-Jul-18 10:15 39.113471 -108.503515 120 5819ft 180kts
31-Jul-18 10:16 39.075785 -108.515325 260 7536ft 205kts
31-Jul-18 10:17 39.066243 -108.588268 260 9140ft 208kts
31-Jul-18 10:18 39.056645 -108.661656 264 10572ft 211kts
31-Jul-18 10:19 39.051333 -108.737277 268 11870ft 213kts
31-Jul-18 10:20 39.081634 -108.778906 32 12977ft 214kts
31-Jul-18 10:21 39.091336 -108.706718 77 14208ft 214kts
31-Jul-18 10:22 39.104011 -108.631437 74 14998ft 226kts
31-Jul-18 10:23 39.119092 -108.546126 74 15005ft 254kts
31-Jul-18 10:24 39.135026 -108.455518 74 15002ft 264kts
31-Jul-18 10:25 39.151215 -108.363050 74 15001ft 267kts
31-Jul-18 10:26 39.167195 -108.273001 73 15001ft 269kts
31-Jul-18 10:27 39.186265 -108.178929 73 15007ft 269kts
31-Jul-18 10:28 39.205159 -108.085738 73 15022ft 269kts
31-Jul-18 10:29 39.223980 -107.992523 73 15041ft 269kts
31-Jul-18 10:30 39.242798 -107.898928 73 15056ft 269kts
31-Jul-18 10:31 39.261515 -107.805428 73 15068ft 269kts
31-Jul-18 10:32 39.280194 -107.711715 73 15073ft 269kts
31-Jul-18 10:33 39.298838 -107.617850 73 15073ft 269kts
31-Jul-18 10:34 39.317340 -107.524142 73 15073ft 269kts
31-Jul-18 10:35 39.335556 -107.431280 73 15113ft 268kts
31-Jul-18 10:36 39.352847 -107.343011 73 15147ft 265kts
31-Jul-18 10:37 39.375241 -107.256589 69 13282ft 250kts
31-Jul-18 10:38 39.386763 -107.175200 90 11969ft 229kts
31-Jul-18 10:39 39.383413 -107.095207 95 10645ft 213kts
31-Jul-18 10:40 39.365186 -107.030742 124 9746ft 186kts
31-Jul-18 10:41 39.336392 -106.984075 113 10157ft 168kts
31-Jul-18 10:42 39.309814 -106.934790 131 10022ft 150kts
31-Jul-18 10:43 39.280979 -106.896665 157 9127ft 155kts
31-Jul-18 10:44 39.241649 -106.877703 159 8136ft 147kts
31-Jul-18 10:45 39.218999 -106.866679 132 7841ft 11kts
31-Jul-18 10:46 39.219233 -106.864838 72 7841ft 0kts
31-Jul-18 10:47 39.219234 -106.864834 72 7841ft 0kts

Navigation Log

Ident Type
Flight plan parsing failed, navigation log unavailable